Time;durP1;ratioP1;P1;durP2;ratioP2;P2;SDS_P1;SDS_P2;PMS_P1;PMS_P2;Temp;Humidity;BMP_temperature;BMP_pressure;BME280_temperature;BME280_humidity;BME280_pressure;Samples;Min_cycle;Max_cycle;Signal;HPM_P1;HPM_P2
2023/05/28 00:02:24;;;;;;;7.22;4.28;;;;;;;;;;4979797;28;20030;-86
2023/05/28 00:04:49;;;;;;;7.50;3.83;;;;;;;;;;4996819;28;20046;-86
2023/05/28 00:07:15;;;;;;;10.98;4.53;;;;;;;;;;4998059;28;20099;-86
2023/05/28 00:09:41;;;;;;;8.60;4.30;;;;;;;;;;4995805;28;20092;-86
2023/05/28 00:12:08;;;;;;;7.45;4.45;;;;;;;;;;4996798;28;20034;-86
2023/05/28 00:14:34;;;;;;;7.50;4.10;;;;;;;;;;4996263;28;20034;-85
2023/05/28 00:17:00;;;;;;;10.32;4.38;;;;;;;;;;4975935;28;20034;-84
2023/05/28 00:19:25;;;;;;;9.02;4.10;;;;;;;;;;4992133;28;20041;-85
2023/05/28 00:21:51;;;;;;;7.47;4.53;;;;;;;;;;4994831;28;20547;-85
2023/05/28 00:24:16;;;;;;;11.73;4.20;;;;;;;;;;4992084;28;20042;-85
2023/05/28 00:26:42;;;;;;;8.05;4.30;;;;;;;;;;4993767;28;20121;-85
2023/05/28 00:29:07;;;;;;;6.03;4.05;;;;;;;;;;4993273;28;20428;-85
2023/05/28 00:31:33;;;;;;;9.55;4.13;;;;;;;;;;4993569;28;20034;-85
2023/05/28 00:33:59;;;;;;;10.57;4.50;;;;;;;;;;4975842;28;20053;-85
2023/05/28 00:36:25;;;;;;;8.95;4.57;;;;;;;;;;4994101;28;20509;-85
2023/05/28 00:38:50;;;;;;;10.93;4.38;;;;;;;;;;4998115;28;20138;-85
2023/05/28 00:41:20;;;;;;;12.85;4.75;;;;;;;;;;4967915;28;20771;-85
2023/05/28 00:43:46;;;;;;;7.05;4.35;;;;;;;;;;4997063;28;20038;-85
2023/05/28 00:46:11;;;;;;;10.88;4.50;;;;;;;;;;4988713;28;20485;-85
2023/05/28 00:48:38;;;;;;;8.15;4.15;;;;;;;;;;4995918;28;20034;-85
2023/05/28 00:51:03;;;;;;;8.57;4.13;;;;;;;;;;4965786;28;20043;-85
2023/05/28 00:53:29;;;;;;;7.72;4.60;;;;;;;;;;4978520;28;20038;-85
2023/05/28 00:55:55;;;;;;;10.95;4.60;;;;;;;;;;4996011;28;20096;-85
2023/05/28 00:58:21;;;;;;;7.90;4.57;;;;;;;;;;4974564;28;20042;-85
2023/05/28 01:00:47;;;;;;;9.48;4.20;;;;;;;;;;4976713;28;20042;-85
2023/05/28 01:03:12;;;;;;;7.15;4.22;;;;;;;;;;4996252;28;20034;-85
2023/05/28 01:05:38;;;;;;;7.03;4.43;;;;;;;;;;4995829;28;20026;-85
2023/05/28 01:08:08;;;;;;;7.38;4.35;;;;;;;;;;4978529;28;20069;-85
2023/05/28 01:10:35;;;;;;;7.70;4.30;;;;;;;;;;4969785;28;20061;-85
2023/05/28 01:13:04;;;;;;;8.10;4.25;;;;;;;;;;4994623;28;20512;-85
2023/05/28 01:15:29;;;;;;;12.23;4.65;;;;;;;;;;4963480;28;20397;-85
2023/05/28 01:18:00;;;;;;;8.55;4.10;;;;;;;;;;4997899;28;20041;-85
2023/05/28 01:20:28;;;;;;;12.73;4.47;;;;;;;;;;4979076;28;20141;-84
2023/05/28 01:22:55;;;;;;;7.32;4.22;;;;;;;;;;4989836;28;20073;-84
2023/05/28 01:25:22;;;;;;;8.68;4.30;;;;;;;;;;4977588;28;20034;-84
2023/05/28 01:27:48;;;;;;;11.13;4.45;;;;;;;;;;4968116;28;20081;-84
2023/05/28 01:30:14;;;;;;;8.45;4.53;;;;;;;;;;4995132;28;20124;-84
2023/05/28 01:32:41;;;;;;;10.20;4.70;;;;;;;;;;4991664;28;20570;-84
2023/05/28 01:35:08;;;;;;;6.88;3.95;;;;;;;;;;4994177;28;20073;-85
2023/05/28 01:37:39;;;;;;;8.43;4.22;;;;;;;;;;4977995;28;20043;-84
2023/05/28 01:40:07;;;;;;;7.63;4.47;;;;;;;;;;4961786;28;20141;-85
2023/05/28 01:42:34;;;;;;;8.15;4.18;;;;;;;;;;4994149;28;20508;-84
2023/05/28 01:45:01;;;;;;;8.45;4.50;;;;;;;;;;4975806;28;20125;-84
2023/05/28 01:47:33;;;;;;;6.60;4.15;;;;;;;;;;4975122;28;20042;-85
2023/05/28 01:49:58;;;;;;;8.52;4.40;;;;;;;;;;4976685;28;20034;-85
2023/05/28 01:52:24;;;;;;;6.45;4.15;;;;;;;;;;4977282;28;20045;-84
2023/05/28 01:54:50;;;;;;;7.70;3.95;;;;;;;;;;4962190;28;20127;-84
2023/05/28 01:57:15;;;;;;;9.50;4.20;;;;;;;;;;4993459;28;20073;-84
2023/05/28 01:59:41;;;;;;;9.52;4.20;;;;;;;;;;4977063;28;20404;-84
2023/05/28 02:02:07;;;;;;;9.90;4.40;;;;;;;;;;4971403;28;20089;-85
2023/05/28 02:04:33;;;;;;;7.75;4.65;;;;;;;;;;4994328;28;20043;-84
2023/05/28 02:06:59;;;;;;;7.78;4.78;;;;;;;;;;4975341;28;20041;-85
2023/05/28 02:09:25;;;;;;;8.63;4.57;;;;;;;;;;4975838;28;20124;-84
2023/05/28 02:11:51;;;;;;;7.90;4.07;;;;;;;;;;4973802;28;20498;-85
2023/05/28 02:14:17;;;;;;;6.30;4.05;;;;;;;;;;4993044;28;20029;-84
2023/05/28 02:16:52;;;;;;;6.95;4.07;;;;;;;;;;4977000;28;20128;-84
2023/05/28 02:19:18;;;;;;;12.20;4.72;;;;;;;;;;4977190;28;20420;-85
2023/05/28 02:21:45;;;;;;;7.60;4.53;;;;;;;;;;4961060;28;20038;-85
2023/05/28 02:24:11;;;;;;;8.77;4.40;;;;;;;;;;4994180;28;20389;-84
2023/05/28 02:26:36;;;;;;;6.50;4.22;;;;;;;;;;4994153;28;20049;-84
2023/05/28 02:29:02;;;;;;;8.32;4.60;;;;;;;;;;4981033;28;20172;-85
2023/05/28 02:31:27;;;;;;;8.63;4.93;;;;;;;;;;4976872;28;20042;-85
2023/05/28 02:33:53;;;;;;;7.05;4.55;;;;;;;;;;4976597;28;20038;-84
2023/05/28 02:36:18;;;;;;;9.02;4.45;;;;;;;;;;4993992;28;20030;-84
2023/05/28 02:38:44;;;;;;;8.43;4.70;;;;;;;;;;4974414;28;20459;-85
2023/05/28 02:41:10;;;;;;;7.47;4.28;;;;;;;;;;4976151;28;20030;-83
2023/05/28 02:43:40;;;;;;;10.07;4.35;;;;;;;;;;4989746;28;20400;-84
2023/05/28 02:46:07;;;;;;;6.20;3.95;;;;;;;;;;4970219;28;20092;-84
2023/05/28 02:48:34;;;;;;;10.52;4.35;;;;;;;;;;4976361;28;20030;-85
2023/05/28 02:51:00;;;;;;;8.65;4.38;;;;;;;;;;4976245;28;20034;-84
2023/05/28 02:53:54;;;;;;;9.38;4.18;;;;;;;;;;4983368;28;20510;-84
2023/05/28 02:56:21;;;;;;;8.13;4.32;;;;;;;;;;4973058;28;20030;-84
2023/05/28 02:58:47;;;;;;;8.77;4.35;;;;;;;;;;4993713;28;20046;-84
2023/05/28 03:01:14;;;;;;;7.45;4.18;;;;;;;;;;4992414;28;20030;-83
2023/05/28 03:03:39;;;;;;;9.07;4.45;;;;;;;;;;4964729;28;20035;-83
2023/05/28 03:06:06;;;;;;;9.40;4.18;;;;;;;;;;4967199;28;20109;-84
2023/05/28 03:08:39;;;;;;;9.75;4.50;;;;;;;;;;4989522;28;20121;-84
2023/05/28 03:11:05;;;;;;;7.32;4.13;;;;;;;;;;4973576;28;20149;-84
2023/05/28 03:13:30;;;;;;;8.95;4.28;;;;;;;;;;4968350;28;20023;-84
2023/05/28 03:15:56;;;;;;;8.13;4.40;;;;;;;;;;4975753;28;20389;-84
2023/05/28 03:18:22;;;;;;;7.35;4.00;;;;;;;;;;4975689;28;20034;-84
2023/05/28 03:20:48;;;;;;;8.05;4.35;;;;;;;;;;4976358;28;20093;-84
2023/05/28 03:23:13;;;;;;;6.20;3.65;;;;;;;;;;4992063;28;20038;-84
2023/05/28 03:25:59;;;;;;;7.13;4.28;;;;;;;;;;4975185;28;20611;-84
2023/05/28 03:28:25;;;;;;;6.32;3.80;;;;;;;;;;4990477;28;20132;-84
2023/05/28 03:31:06;;;;;;;9.00;4.18;;;;;;;;;;4962159;28;20034;-84
2023/05/28 03:33:32;;;;;;;7.05;3.60;;;;;;;;;;4975393;28;20584;-84
2023/05/28 03:35:57;;;;;;;8.77;3.92;;;;;;;;;;4990687;28;20080;-84
2023/05/28 03:38:23;;;;;;;6.72;4.00;;;;;;;;;;4990935;28;20038;-84
2023/05/28 03:40:48;;;;;;;6.55;3.50;;;;;;;;;;4968031;28;20038;-85
2023/05/28 03:43:14;;;;;;;7.90;4.07;;;;;;;;;;4992159;28;20072;-84
2023/05/28 03:45:39;;;;;;;7.07;4.18;;;;;;;;;;4973547;28;20563;-84
2023/05/28 03:48:06;;;;;;;6.65;4.10;;;;;;;;;;4974423;28;20037;-83
2023/05/28 03:50:31;;;;;;;8.82;4.10;;;;;;;;;;4974922;28;20034;-84
2023/05/28 03:52:57;;;;;;;7.53;4.00;;;;;;;;;;4991084;28;20042;-84
2023/05/28 03:55:22;;;;;;;7.22;3.95;;;;;;;;;;4982323;28;20512;-84
2023/05/28 03:57:48;;;;;;;6.25;4.00;;;;;;;;;;4974495;28;20108;-84
2023/05/28 04:00:16;;;;;;;6.15;4.10;;;;;;;;;;4974377;28;20096;-84
2023/05/28 04:02:44;;;;;;;8.57;4.30;;;;;;;;;;4992098;28;20404;-84
2023/05/28 04:05:10;;;;;;;8.63;3.92;;;;;;;;;;4990291;28;20038;-84
2023/05/28 04:07:35;;;;;;;9.63;3.95;;;;;;;;;;4958127;28;20048;-84
2023/05/28 04:10:02;;;;;;;9.40;3.75;;;;;;;;;;4990555;28;20030;-84
2023/05/28 04:12:27;;;;;;;6.72;3.65;;;;;;;;;;4989983;28;20181;-85
2023/05/28 04:14:53;;;;;;;7.13;4.10;;;;;;;;;;4970014;28;20034;-83
2023/05/28 04:17:20;;;;;;;5.68;3.80;;;;;;;;;;4987893;28;20041;-83
2023/05/28 04:19:47;;;;;;;7.30;4.60;;;;;;;;;;4973697;28;20131;-84
2023/05/28 04:22:12;;;;;;;7.30;4.22;;;;;;;;;;4971569;28;20054;-84
2023/05/28 04:24:38;;;;;;;6.70;4.20;;;;;;;;;;4991447;28;20042;-84
2023/05/28 04:27:04;;;;;;;6.47;4.20;;;;;;;;;;4965022;28;20525;-84
2023/05/28 04:29:30;;;;;;;8.75;4.05;;;;;;;;;;4956891;28;20038;-84
2023/05/28 04:31:57;;;;;;;7.25;4.30;;;;;;;;;;4969680;28;20045;-84
2023/05/28 04:34:24;;;;;;;10.30;4.25;;;;;;;;;;4974475;28;20034;-84
2023/05/28 04:36:51;;;;;;;8.23;4.30;;;;;;;;;;4959964;28;20042;-83
2023/05/28 04:39:17;;;;;;;9.50;4.38;;;;;;;;;;4973699;28;20046;-84
2023/05/28 04:41:43;;;;;;;8.00;4.38;;;;;;;;;;4962326;28;20110;-84
2023/05/28 04:44:10;;;;;;;9.13;4.50;;;;;;;;;;4990847;28;20113;-84
2023/05/28 04:46:36;;;;;;;6.95;4.43;;;;;;;;;;4989851;28;20492;-84
2023/05/28 04:49:04;;;;;;;8.73;5.00;;;;;;;;;;4970889;28;20093;-84
2023/05/28 04:51:29;;;;;;;9.88;4.53;;;;;;;;;;4973000;28;20045;-84
2023/05/28 04:53:55;;;;;;;9.90;4.63;;;;;;;;;;4991065;28;20038;-84
2023/05/28 04:56:20;;;;;;;6.85;4.30;;;;;;;;;;4972489;28;20031;-84
2023/05/28 04:58:46;;;;;;;10.10;4.55;;;;;;;;;;4989805;28;20088;-84
2023/05/28 05:01:14;;;;;;;10.77;5.00;;;;;;;;;;4989829;28;20443;-83
2023/05/28 05:03:41;;;;;;;8.23;4.60;;;;;;;;;;4969082;28;20451;-84
2023/05/28 05:06:07;;;;;;;7.65;4.63;;;;;;;;;;4971385;28;20039;-84
2023/05/28 05:08:33;;;;;;;9.40;4.50;;;;;;;;;;4961445;28;20196;-84
2023/05/28 05:11:00;;;;;;;8.23;4.47;;;;;;;;;;4971767;28;20030;-84
2023/05/28 05:13:26;;;;;;;8.43;4.30;;;;;;;;;;4968072;28;20061;-84
2023/05/28 05:15:51;;;;;;;8.75;4.43;;;;;;;;;;4965720;28;20038;-85
2023/05/28 05:18:18;;;;;;;12.68;4.35;;;;;;;;;;4956454;28;20580;-84
2023/05/28 05:20:43;;;;;;;11.27;4.65;;;;;;;;;;4968835;28;20168;-84
2023/05/28 05:23:09;;;;;;;11.35;5.07;;;;;;;;;;4989791;28;20058;-83
2023/05/28 05:25:34;;;;;;;7.60;4.75;;;;;;;;;;4966125;28;20485;-84
2023/05/28 05:28:00;;;;;;;9.20;4.10;;;;;;;;;;4993679;28;20062;-85
2023/05/28 05:30:28;;;;;;;10.73;4.75;;;;;;;;;;4993250;28;20043;-84
2023/05/28 05:32:53;;;;;;;12.23;5.10;;;;;;;;;;4967350;28;20042;-85
2023/05/28 05:35:19;;;;;;;11.45;4.30;;;;;;;;;;4993653;28;20034;-85
2023/05/28 05:37:54;;;;;;;10.50;4.30;;;;;;;;;;4993298;28;20052;-85
2023/05/28 05:40:22;;;;;;;10.80;4.45;;;;;;;;;;4994535;28;20042;-84
2023/05/28 05:42:54;;;;;;;10.93;5.03;;;;;;;;;;4991734;28;20125;-85
2023/05/28 05:45:19;;;;;;;10.60;4.80;;;;;;;;;;4973037;28;20461;-84
2023/05/28 05:47:45;;;;;;;11.98;4.80;;;;;;;;;;4976374;28;20064;-84
2023/05/28 05:50:12;;;;;;;12.30;4.90;;;;;;;;;;4975403;28;20089;-85
2023/05/28 05:52:40;;;;;;;9.13;4.32;;;;;;;;;;4970401;28;20034;-84
2023/05/28 05:55:07;;;;;;;11.60;4.55;;;;;;;;;;4966101;28;20440;-85
2023/05/28 05:57:33;;;;;;;10.32;4.78;;;;;;;;;;4985933;28;20047;-84
2023/05/28 05:59:59;;;;;;;15.43;8.10;;;;;;;;;;4992769;28;20038;-85
2023/05/28 06:02:25;;;;;;;8.10;4.38;;;;;;;;;;4963256;28;20045;-85
2023/05/28 06:04:51;;;;;;;7.28;4.22;;;;;;;;;;4992391;28;20448;-84
2023/05/28 06:07:36;;;;;;;10.55;4.90;;;;;;;;;;4993815;28;20064;-84
2023/05/28 06:10:12;;;;;;;7.82;4.47;;;;;;;;;;4991067;28;20061;-84
2023/05/28 06:12:39;;;;;;;9.43;4.35;;;;;;;;;;4974969;28;20034;-83
2023/05/28 06:15:06;;;;;;;9.05;4.43;;;;;;;;;;4962531;28;20104;-84
2023/05/28 06:17:32;;;;;;;9.55;4.53;;;;;;;;;;4992486;28;20038;-84
2023/05/28 06:19:59;;;;;;;12.60;4.95;;;;;;;;;;4992264;28;20108;-85
2023/05/28 06:22:27;;;;;;;12.63;4.82;;;;;;;;;;4992183;28;20129;-84
2023/05/28 06:24:54;;;;;;;10.07;4.78;;;;;;;;;;4969532;28;20121;-84
2023/05/28 06:27:20;;;;;;;9.07;4.55;;;;;;;;;;4972096;28;20455;-85
2023/05/28 06:29:46;;;;;;;10.32;5.00;;;;;;;;;;4974965;28;20038;-85
2023/05/28 06:32:13;;;;;;;9.40;4.95;;;;;;;;;;4974518;28;20125;-85
2023/05/28 06:34:39;;;;;;;10.07;4.50;;;;;;;;;;4976531;28;20485;-85
2023/05/28 06:37:05;;;;;;;9.77;4.70;;;;;;;;;;4991882;28;20036;-85
2023/05/28 06:39:31;;;;;;;8.32;4.50;;;;;;;;;;4983965;28;20153;-85
2023/05/28 06:41:57;;;;;;;9.13;4.47;;;;;;;;;;4961807;28;20335;-85
2023/05/28 06:44:45;;;;;;;9.38;4.35;;;;;;;;;;4986934;28;20042;-87
2023/05/28 06:47:14;;;;;;;10.43;4.70;;;;;;;;;;4975026;28;20473;-86
2023/05/28 06:49:40;;;;;;;10.80;5.05;;;;;;;;;;4993452;28;20109;-85
2023/05/28 06:52:06;;;;;;;9.77;4.90;;;;;;;;;;4974544;28;20034;-87
2023/05/28 06:54:32;;;;;;;11.02;4.85;;;;;;;;;;4991514;28;20033;-86
2023/05/28 06:56:58;;;;;;;13.05;5.20;;;;;;;;;;4975455;28;20038;-87
2023/05/28 06:59:42;;;;;;;14.85;4.97;;;;;;;;;;4993076;28;20052;-87
2023/05/28 07:02:07;;;;;;;9.45;4.55;;;;;;;;;;4959096;28;20050;-86
2023/05/28 07:04:52;;;;;;;16.63;4.82;;;;;;;;;;4978318;28;20114;-87
2023/05/28 07:07:23;;;;;;;10.23;4.97;;;;;;;;;;4972158;28;20038;-87
2023/05/28 07:09:49;;;;;;;9.90;5.05;;;;;;;;;;4968539;28;20034;-85
2023/05/28 07:12:14;;;;;;;9.02;4.90;;;;;;;;;;4991546;28;20042;-87
2023/05/28 07:14:45;;;;;;;9.50;5.30;;;;;;;;;;4990427;28;20034;-88
2023/05/28 07:17:11;;;;;;;10.48;4.93;;;;;;;;;;4975386;28;20038;-87
2023/05/28 07:19:38;;;;;;;10.38;4.53;;;;;;;;;;4976595;28;20523;-83
2023/05/28 07:22:05;;;;;;;9.95;4.60;;;;;;;;;;4993057;28;20042;-85
2023/05/28 07:24:30;;;;;;;10.55;4.50;;;;;;;;;;4961365;28;20117;-83
2023/05/28 07:26:56;;;;;;;9.90;5.60;;;;;;;;;;4994969;28;20579;-85
2023/05/28 07:29:22;;;;;;;11.60;5.15;;;;;;;;;;4994934;28;20038;-84
2023/05/28 07:31:48;;;;;;;10.45;5.05;;;;;;;;;;4988378;28;20038;-85
2023/05/28 07:34:15;;;;;;;8.60;5.00;;;;;;;;;;4973565;28;20037;-85
2023/05/28 07:36:42;;;;;;;10.63;5.00;;;;;;;;;;4967647;28;20544;-85
2023/05/28 07:39:10;;;;;;;11.57;4.97;;;;;;;;;;4995096;28;20034;-85
2023/05/28 07:41:36;;;;;;;10.93;4.70;;;;;;;;;;4977499;28;20044;-86
2023/05/28 07:44:11;;;;;;;12.25;5.32;;;;;;;;;;4994423;28;20034;-85
2023/05/28 07:46:37;;;;;;;13.18;5.25;;;;;;;;;;4970141;28;20386;-85
2023/05/28 07:49:13;;;;;;;12.98;5.22;;;;;;;;;;4977880;28;20550;-86
2023/05/28 07:51:43;;;;;;;10.52;5.30;;;;;;;;;;4965444;28;20061;-86
2023/05/28 07:54:11;;;;;;;12.95;5.18;;;;;;;;;;4993271;28;20519;-87
2023/05/28 07:56:38;;;;;;;10.95;5.20;;;;;;;;;;4977588;28;20121;-85
2023/05/28 07:59:07;;;;;;;10.23;5.15;;;;;;;;;;4993689;28;20061;-86
2023/05/28 08:01:33;;;;;;;10.60;4.95;;;;;;;;;;4967564;28;20062;-87
2023/05/28 08:04:00;;;;;;;14.57;5.65;;;;;;;;;;4993944;28;20508;-87
2023/05/28 08:06:33;;;;;;;;;;;;;;;;;;4978951;28;20058;-87
2023/05/28 08:09:00;;;;;;;12.25;5.53;;;;;;;;;;4984129;28;19920;-88
2023/05/28 08:11:26;;;;;;;11.10;5.78;;;;;;;;;;4979082;28;20027;-88
2023/05/28 08:13:52;;;;;;;11.65;5.03;;;;;;;;;;4994899;28;20038;-87
2023/05/28 08:16:18;;;;;;;11.18;5.40;;;;;;;;;;4995377;28;20042;-87
2023/05/28 08:19:03;;;;;;;10.48;5.05;;;;;;;;;;4994668;28;20069;-87
2023/05/28 08:21:30;;;;;;;11.27;5.03;;;;;;;;;;4960597;28;20034;-87
2023/05/28 08:23:56;;;;;;;9.65;5.35;;;;;;;;;;4992884;28;20400;-87
2023/05/28 08:26:21;;;;;;;12.60;5.85;;;;;;;;;;4980056;28;20500;-88
2023/05/28 08:28:47;;;;;;;10.18;5.78;;;;;;;;;;4962235;28;20545;-88
2023/05/28 08:31:13;;;;;;;13.10;5.80;;;;;;;;;;4994543;28;20037;-87
2023/05/28 08:34:02;;;;;;;10.10;5.65;;;;;;;;;;4973136;28;20512;-87
2023/05/28 08:36:28;;;;;;;9.45;5.32;;;;;;;;;;4977302;28;20046;-87
2023/05/28 08:38:55;;;;;;;10.07;5.25;;;;;;;;;;4977797;28;20035;-88
2023/05/28 08:41:23;;;;;;;12.50;5.32;;;;;;;;;;4979907;28;20121;-87
2023/05/28 08:43:49;;;;;;;14.65;5.63;;;;;;;;;;4977023;28;20041;-88
2023/05/28 08:46:15;;;;;;;10.82;5.45;;;;;;;;;;4974830;28;20038;-87
2023/05/28 08:49:02;;;;;;;13.85;5.22;;;;;;;;;;4997640;28;20509;-88
2023/05/28 08:51:32;;;;;;;10.60;4.95;;;;;;;;;;4971021;28;20034;-87
2023/05/28 08:54:00;;;;;;;12.50;5.30;;;;;;;;;;4990800;28;20042;-87
2023/05/28 08:56:28;;;;;;;10.40;5.30;;;;;;;;;;4993943;28;20046;-87
2023/05/28 08:58:54;;;;;;;12.15;5.65;;;;;;;;;;4981106;28;20038;-88
2023/05/28 09:01:20;;;;;;;13.55;5.57;;;;;;;;;;5003326;28;20038;-87
2023/05/28 09:04:03;;;;;;;10.90;5.07;;;;;;;;;;4987539;28;20115;-88
2023/05/28 09:06:41;;;;;;;10.00;5.18;;;;;;;;;;5001403;28;20289;-87
2023/05/28 09:09:14;;;;;;;10.40;4.93;;;;;;;;;;4981489;28;20035;-88
2023/05/28 09:11:47;;;;;;;12.25;4.68;;;;;;;;;;5000527;28;20104;-88
2023/05/28 09:14:13;;;;;;;13.38;4.47;;;;;;;;;;4985560;28;20034;-88
2023/05/28 09:16:41;;;;;;;12.45;5.13;;;;;;;;;;4979715;28;20042;-88
2023/05/28 09:19:14;;;;;;;11.93;5.20;;;;;;;;;;4986967;28;20034;-88
2023/05/28 09:21:53;;;;;;;12.43;4.80;;;;;;;;;;5003010;28;20511;-88
2023/05/28 09:24:20;;;;;;;8.55;4.50;;;;;;;;;;4983477;28;20036;-88
2023/05/28 09:27:11;;;;;;;10.98;4.60;;;;;;;;;;5004323;28;20079;-88
2023/05/28 09:29:38;;;;;;;8.98;4.28;;;;;;;;;;4985016;28;20050;-87
2023/05/28 09:32:04;;;;;;;11.57;4.97;;;;;;;;;;5001465;28;20034;-88
2023/05/28 09:34:31;;;;;;;12.27;4.63;;;;;;;;;;4997902;28;20046;-88
2023/05/28 09:37:04;;;;;;;12.30;4.50;;;;;;;;;;4994984;28;20034;-88
2023/05/28 09:39:30;;;;;;;13.13;4.28;;;;;;;;;;4977831;28;20034;-87
2023/05/28 09:42:09;;;;;;;12.45;4.45;;;;;;;;;;4976372;28;20042;-87
2023/05/28 09:44:36;;;;;;;11.45;4.65;;;;;;;;;;4993064;28;20069;-87
2023/05/28 09:47:21;;;;;;;9.63;4.25;;;;;;;;;;4980956;28;20042;-87
2023/05/28 09:49:48;;;;;;;7.93;4.43;;;;;;;;;;5002690;28;20031;-87
2023/05/28 09:52:19;;;;;;;8.75;4.00;;;;;;;;;;5000500;28;20038;-87
2023/05/28 09:54:59;;;;;;;10.73;4.13;;;;;;;;;;5000141;28;20022;-87
2023/05/28 09:57:33;;;;;;;14.25;4.60;;;;;;;;;;4983367;28;20085;-87
2023/05/28 10:00:11;;;;;;;12.90;4.47;;;;;;;;;;4996578;28;20038;-87
2023/05/28 10:02:58;;;;;;;11.77;4.00;;;;;;;;;;5002097;28;20062;-87
2023/05/28 10:05:27;;;;;;;11.43;4.18;;;;;;;;;;4983907;28;20038;-87
2023/05/28 10:07:55;;;;;;;11.93;4.55;;;;;;;;;;5003237;28;20066;-87
2023/05/28 10:10:21;;;;;;;11.55;4.57;;;;;;;;;;4974034;28;20053;-87
2023/05/28 10:12:49;;;;;;;9.07;3.97;;;;;;;;;;5001683;28;20026;-88
2023/05/28 10:15:16;;;;;;;11.55;4.40;;;;;;;;;;5001669;28;20038;-88
2023/05/28 10:17:42;;;;;;;10.98;3.95;;;;;;;;;;4980941;28;20094;-86
2023/05/28 10:20:10;;;;;;;9.48;4.25;;;;;;;;;;5002251;28;20092;-87
2023/05/28 10:22:40;;;;;;;12.90;4.03;;;;;;;;;;5001040;28;20042;-87
2023/05/28 10:25:07;;;;;;;18.00;4.00;;;;;;;;;;5001547;28;20117;-87
2023/05/28 10:27:35;;;;;;;8.23;3.65;;;;;;;;;;5002689;28;20041;-88
2023/05/28 10:30:05;;;;;;;9.85;4.00;;;;;;;;;;5000770;28;20042;-88
2023/05/28 10:32:44;;;;;;;8.10;3.60;;;;;;;;;;4978910;28;20089;-88
2023/05/28 10:35:11;;;;;;;12.15;3.60;;;;;;;;;;4982386;28;20500;-88
2023/05/28 10:37:36;;;;;;;9.50;3.70;;;;;;;;;;4980579;28;20041;-88
2023/05/28 10:40:02;;;;;;;15.15;3.53;;;;;;;;;;4999604;28;20062;-87
2023/05/28 10:42:27;;;;;;;7.57;3.58;;;;;;;;;;4971018;28;20030;-87
2023/05/28 10:44:59;;;;;;;8.93;3.58;;;;;;;;;;4996437;28;20038;-87
2023/05/28 10:47:35;;;;;;;9.95;3.33;;;;;;;;;;4998764;28;20034;-87
2023/05/28 10:50:11;;;;;;;7.95;3.30;;;;;;;;;;4987792;28;20041;-88
2023/05/28 10:52:37;;;;;;;7.50;3.20;;;;;;;;;;4986468;28;20034;-87
2023/05/28 10:55:04;;;;;;;9.57;3.40;;;;;;;;;;5002516;28;20029;-87
2023/05/28 10:57:42;;;;;;;7.90;3.30;;;;;;;;;;4998808;28;20038;-87
2023/05/28 11:00:12;;;;;;;8.77;3.33;;;;;;;;;;5001138;28;20045;-87
2023/05/28 11:02:40;;;;;;;9.20;3.75;;;;;;;;;;4976700;28;20034;-87
2023/05/28 11:05:06;;;;;;;7.25;2.97;;;;;;;;;;4986260;28;20096;-87
2023/05/28 11:07:36;;;;;;;8.73;3.22;;;;;;;;;;5002238;28;20034;-86
2023/05/28 11:10:04;;;;;;;9.30;3.28;;;;;;;;;;5002010;28;20042;-86
2023/05/28 11:12:32;;;;;;;8.15;3.38;;;;;;;;;;4999183;28;20030;-86
2023/05/28 11:14:57;;;;;;;8.75;3.50;;;;;;;;;;5001929;28;20041;-86
2023/05/28 11:17:23;;;;;;;7.90;3.42;;;;;;;;;;5005075;28;20750;-87
2023/05/28 11:19:51;;;;;;;8.63;3.05;;;;;;;;;;5002342;28;20041;-87
2023/05/28 11:22:18;;;;;;;8.20;3.30;;;;;;;;;;4999266;28;20042;-87
2023/05/28 11:25:00;;;;;;;9.90;3.30;;;;;;;;;;4998807;28;20045;-87
2023/05/28 11:27:31;;;;;;;9.80;3.20;;;;;;;;;;4982449;28;20034;-86
2023/05/28 11:30:02;;;;;;;6.38;3.22;;;;;;;;;;4980444;28;20049;-87
2023/05/28 11:32:32;;;;;;;7.88;3.70;;;;;;;;;;4981328;28;20082;-87
2023/05/28 11:34:58;;;;;;;8.20;3.20;;;;;;;;;;4998860;28;20077;-87
2023/05/28 11:37:25;;;;;;;8.80;3.53;;;;;;;;;;4968724;28;20066;-87
2023/05/28 11:39:52;;;;;;;7.95;3.20;;;;;;;;;;4995170;28;20121;-86
2023/05/28 11:42:19;;;;;;;9.93;3.22;;;;;;;;;;4995831;28;20670;-86
2023/05/28 11:44:45;;;;;;;9.93;3.45;;;;;;;;;;4997133;28;20069;-86
2023/05/28 11:47:12;;;;;;;10.00;3.03;;;;;;;;;;4964612;28;20035;-86
2023/05/28 11:49:37;;;;;;;8.88;3.10;;;;;;;;;;4979896;28;20031;-87
2023/05/28 11:52:03;;;;;;;9.60;3.17;;;;;;;;;;4972066;28;20038;-87
2023/05/28 11:54:29;;;;;;;11.10;3.30;;;;;;;;;;4998787;28;20044;-87
2023/05/28 11:56:54;;;;;;;7.55;3.20;;;;;;;;;;5001744;28;20062;-87
2023/05/28 11:59:26;;;;;;;7.32;2.97;;;;;;;;;;5003145;28;20050;-86
2023/05/28 12:01:52;;;;;;;7.18;3.05;;;;;;;;;;4984815;28;20038;-86
2023/05/28 12:04:23;;;;;;;9.30;3.00;;;;;;;;;;5003123;28;20042;-87
2023/05/28 12:06:51;;;;;;;9.55;3.33;;;;;;;;;;4977486;28;20247;-87
2023/05/28 12:09:17;;;;;;;8.90;3.22;;;;;;;;;;4976468;28;20042;-87
2023/05/28 12:11:42;;;;;;;8.23;3.22;;;;;;;;;;4993746;28;20038;-87
2023/05/28 12:14:11;;;;;;;8.85;3.65;;;;;;;;;;4993031;28;20045;-87
2023/05/28 12:16:51;;;;;;;6.35;3.13;;;;;;;;;;4993715;28;20053;-86
2023/05/28 12:19:17;;;;;;;12.07;3.17;;;;;;;;;;4973094;28;20092;-87
2023/05/28 12:21:44;;;;;;;10.88;3.47;;;;;;;;;;4975657;28;20034;-87
2023/05/28 12:24:15;;;;;;;8.40;3.13;;;;;;;;;;4992050;28;20038;-87
2023/05/28 12:26:41;;;;;;;8.77;3.08;;;;;;;;;;4974793;28;20389;-87
2023/05/28 12:29:07;;;;;;;5.85;3.10;;;;;;;;;;4993459;28;20119;-87
2023/05/28 12:31:33;;;;;;;8.30;3.20;;;;;;;;;;4984139;28;20706;-87
2023/05/28 12:33:58;;;;;;;8.27;3.22;;;;;;;;;;4979814;28;20444;-87
2023/05/28 12:36:24;;;;;;;9.93;3.35;;;;;;;;;;4967115;28;20039;-88
2023/05/28 12:38:49;;;;;;;6.07;3.10;;;;;;;;;;4997269;28;20034;-87
2023/05/28 12:41:15;;;;;;;8.57;3.00;;;;;;;;;;4997887;28;20034;-86
2023/05/28 12:43:40;;;;;;;6.90;3.22;;;;;;;;;;4998235;28;20045;-87
2023/05/28 12:46:06;;;;;;;7.32;3.45;;;;;;;;;;4979323;28;20034;-87
2023/05/28 12:48:31;;;;;;;7.38;3.10;;;;;;;;;;5001264;28;20492;-87
2023/05/28 12:51:00;;;;;;;8.02;3.20;;;;;;;;;;5002054;28;20030;-87
2023/05/28 12:53:25;;;;;;;10.38;3.47;;;;;;;;;;5000875;28;20046;-87
2023/05/28 12:55:51;;;;;;;8.15;3.65;;;;;;;;;;4983320;28;20042;-87
2023/05/28 12:58:16;;;;;;;8.15;3.08;;;;;;;;;;5001304;28;20049;-88
2023/05/28 13:00:42;;;;;;;7.70;2.92;;;;;;;;;;4984745;28;20058;-88
2023/05/28 13:03:07;;;;;;;7.20;3.03;;;;;;;;;;5002127;28;20503;-87
2023/05/28 13:05:33;;;;;;;9.63;3.00;;;;;;;;;;5000204;28;20053;-87
2023/05/28 13:08:01;;;;;;;6.90;2.97;;;;;;;;;;5001851;28;20041;-87
2023/05/28 13:10:26;;;;;;;5.85;3.00;;;;;;;;;;5001826;28;20411;-87
2023/05/28 13:12:52;;;;;;;9.80;3.03;;;;;;;;;;4999842;28;20031;-87
2023/05/28 13:15:17;;;;;;;5.70;2.90;;;;;;;;;;5002848;28;20512;-87
2023/05/28 13:17:44;;;;;;;6.93;3.28;;;;;;;;;;5000181;28;20050;-87
2023/05/28 13:20:10;;;;;;;7.13;3.00;;;;;;;;;;4976808;28;20042;-86
2023/05/28 13:22:36;;;;;;;8.25;3.20;;;;;;;;;;4981600;28;20052;-87
2023/05/28 13:25:06;;;;;;;7.45;3.08;;;;;;;;;;4996981;28;20035;-87
2023/05/28 13:27:32;;;;;;;7.97;2.90;;;;;;;;;;4982166;28;20049;-87
2023/05/28 13:29:59;;;;;;;9.98;3.50;;;;;;;;;;5001708;28;20046;-86
2023/05/28 13:32:24;;;;;;;9.32;3.20;;;;;;;;;;4997258;28;20045;-87
2023/05/28 13:34:50;;;;;;;7.18;3.10;;;;;;;;;;4975471;28;20121;-87
2023/05/28 13:37:16;;;;;;;10.00;3.58;;;;;;;;;;4999239;28;20037;-87
2023/05/28 13:39:41;;;;;;;6.78;3.10;;;;;;;;;;4995217;28;20136;-86
2023/05/28 13:42:07;;;;;;;8.73;3.50;;;;;;;;;;4998994;28;20038;-87
2023/05/28 13:44:34;;;;;;;7.22;3.10;;;;;;;;;;4999734;28;20066;-86
2023/05/28 13:46:59;;;;;;;8.95;2.85;;;;;;;;;;4977016;28;20034;-89
2023/05/28 13:49:25;;;;;;;6.40;3.00;;;;;;;;;;4979453;28;20049;-87
2023/05/28 13:51:51;;;;;;;7.38;3.00;;;;;;;;;;5001865;28;20046;-87
2023/05/28 13:54:16;;;;;;;6.15;2.88;;;;;;;;;;4975054;28;20062;-87
2023/05/28 13:56:42;;;;;;;7.90;3.10;;;;;;;;;;5001996;28;20034;-88
2023/05/28 13:59:08;;;;;;;10.75;3.30;;;;;;;;;;4999806;28;20034;-88
2023/05/28 14:01:34;;;;;;;5.00;3.05;;;;;;;;;;4987455;28;20050;-88
2023/05/28 14:04:00;;;;;;;8.73;3.30;;;;;;;;;;5002902;28;20130;-88
2023/05/28 14:06:25;;;;;;;8.07;3.13;;;;;;;;;;5000443;28;20046;-87
2023/05/28 14:08:51;;;;;;;5.72;2.67;;;;;;;;;;5000864;28;20121;-87
2023/05/28 14:11:17;;;;;;;7.80;3.10;;;;;;;;;;4999262;28;20084;-87
2023/05/28 14:13:43;;;;;;;5.80;2.90;;;;;;;;;;5002947;28;20073;-87
2023/05/28 14:16:09;;;;;;;8.52;2.97;;;;;;;;;;4998853;28;20034;-86
2023/05/28 14:18:34;;;;;;;5.80;2.72;;;;;;;;;;5000688;28;20060;-88
2023/05/28 14:21:00;;;;;;;5.85;3.05;;;;;;;;;;5002092;28;20038;-88
2023/05/28 14:23:26;;;;;;;5.75;2.72;;;;;;;;;;4984641;28;20030;-88
2023/05/28 14:25:51;;;;;;;7.32;2.90;;;;;;;;;;5000869;28;20109;-88
2023/05/28 14:28:17;;;;;;;5.40;2.72;;;;;;;;;;5003918;28;20042;-87
2023/05/28 14:30:42;;;;;;;7.00;3.08;;;;;;;;;;5000065;28;20049;-87
2023/05/28 14:33:09;;;;;;;10.10;3.25;;;;;;;;;;4999729;28;20057;-88
2023/05/28 14:35:35;;;;;;;5.55;2.90;;;;;;;;;;5000601;28;20117;-87
2023/05/28 14:38:00;;;;;;;7.85;2.40;;;;;;;;;;5000173;28;20132;-87
2023/05/28 14:40:26;;;;;;;5.80;2.90;;;;;;;;;;5002930;28;20038;-87
2023/05/28 14:42:52;;;;;;;8.00;2.80;;;;;;;;;;4998959;28;20042;-88